createdAt,value
2019-05-12T00:00:31.498Z,6.17
2019-05-12T00:03:00.267Z,5.25
2019-05-12T00:05:29.041Z,5.37
2019-05-12T00:07:58.897Z,4.67
2019-05-12T00:10:28.266Z,5.35
2019-05-12T00:12:58.192Z,5.40
2019-05-12T00:15:28.024Z,4.72
2019-05-12T00:17:58.604Z,4.95
2019-05-12T00:20:28.306Z,4.80
2019-05-12T00:22:58.872Z,4.60
2019-05-12T00:25:28.314Z,5.12
2019-05-12T00:27:58.692Z,4.47
2019-05-12T00:30:41.025Z,4.55
2019-05-12T00:33:09.815Z,5.40
2019-05-12T00:35:38.971Z,4.85
2019-05-12T00:38:09.041Z,4.60
2019-05-12T00:40:39.158Z,4.70
2019-05-12T00:43:09.094Z,4.60
2019-05-12T00:45:38.936Z,4.47
2019-05-12T00:48:09.056Z,4.50
2019-05-12T00:50:38.543Z,4.70
2019-05-12T00:53:09.219Z,4.40
2019-05-12T00:55:38.479Z,4.58
2019-05-12T00:58:08.540Z,4.40
2019-05-12T01:00:40.503Z,4.22
2019-05-12T01:03:08.797Z,3.92
2019-05-12T01:05:38.320Z,4.37
2019-05-12T01:08:09.261Z,4.70
2019-05-12T01:10:38.955Z,4.40
2019-05-12T01:13:08.776Z,4.45
2019-05-12T01:15:38.121Z,4.58
2019-05-12T01:18:09.288Z,4.12
2019-05-12T01:20:38.963Z,4.25
2019-05-12T01:23:08.688Z,4.28
2019-05-12T01:25:39.474Z,4.17
2019-05-12T01:28:08.542Z,4.45
2019-05-12T01:30:38.949Z,4.15
2019-05-12T01:33:08.612Z,3.83
2019-05-12T01:35:38.756Z,3.77
2019-05-12T01:38:08.407Z,3.92
2019-05-12T01:40:39.567Z,3.90
2019-05-12T01:43:08.860Z,4.33
2019-05-12T01:45:38.053Z,3.85
2019-05-12T01:48:08.662Z,4.08
2019-05-12T01:50:38.550Z,3.65
2019-05-12T01:53:08.337Z,3.75
2019-05-12T01:55:38.618Z,3.45
2019-05-12T01:58:08.661Z,3.70
2019-05-12T02:00:38.723Z,3.90
2019-05-12T02:03:09.215Z,4.03
2019-05-12T02:05:40.015Z,3.40
2019-05-12T02:08:10.367Z,3.90
2019-05-12T02:10:39.181Z,3.52
2019-05-12T02:13:08.137Z,3.80
2019-05-12T02:15:38.353Z,4.08
2019-05-12T02:18:09.154Z,3.50
2019-05-12T02:20:38.341Z,3.22
2019-05-12T02:23:08.881Z,3.60
2019-05-12T02:25:38.175Z,3.77
2019-05-12T02:28:09.192Z,3.87
2019-05-12T02:30:41.515Z,3.27
2019-05-12T02:33:08.017Z,3.65
2019-05-12T02:35:36.764Z,3.85
2019-05-12T02:38:05.671Z,3.42
2019-05-12T02:40:35.073Z,3.35
2019-05-12T02:43:05.425Z,3.35
2019-05-12T02:45:35.764Z,3.20
2019-05-12T02:48:05.621Z,3.30
2019-05-12T02:50:37.411Z,3.77
2019-05-12T02:53:07.105Z,2.90
2019-05-12T02:55:36.160Z,3.27
2019-05-12T02:58:05.935Z,3.02
2019-05-12T03:00:36.253Z,3.40
2019-05-12T03:03:07.656Z,3.45
2019-05-12T03:05:38.295Z,3.00
2019-05-12T03:08:07.075Z,3.47
2019-05-12T03:10:36.600Z,3.20
2019-05-12T03:13:05.513Z,3.08
2019-05-12T03:15:36.299Z,3.40
2019-05-12T03:18:06.360Z,3.25
2019-05-12T03:20:35.815Z,3.20
2019-05-12T03:23:06.347Z,3.47
2019-05-12T03:25:36.689Z,3.10
2019-05-12T03:28:08.652Z,3.27
2019-05-12T03:30:39.906Z,3.30
2019-05-12T03:33:10.315Z,3.02
2019-05-12T03:35:50.185Z,2.52
2019-05-12T03:38:08.677Z,2.62
2019-05-12T03:40:38.801Z,3.08
2019-05-12T03:43:07.863Z,3.30
2019-05-12T03:45:36.726Z,2.92
2019-05-12T03:48:06.249Z,2.83
2019-05-12T03:50:36.049Z,3.08
2019-05-12T03:53:10.343Z,2.58
2019-05-12T03:55:42.015Z,2.80
2019-05-12T03:58:07.060Z,2.83
2019-05-12T04:00:36.564Z,2.98
2019-05-12T04:03:06.106Z,2.67
2019-05-12T04:05:36.127Z,2.80
2019-05-12T04:08:06.749Z,2.60
2019-05-12T04:10:36.775Z,3.12
2019-05-12T04:13:06.136Z,2.50
2019-05-12T04:15:35.674Z,2.87
2019-05-12T04:18:06.003Z,2.60
2019-05-12T04:20:36.205Z,2.50
2019-05-12T04:23:06.339Z,2.80
2019-05-12T04:25:51.674Z,2.67
2019-05-12T04:28:07.518Z,2.70
2019-05-12T04:30:36.285Z,2.77
2019-05-12T04:33:05.962Z,2.55
2019-05-12T04:35:35.829Z,2.72
2019-05-12T04:38:05.389Z,2.42
2019-05-12T04:40:35.754Z,2.52
2019-05-12T04:43:06.464Z,2.70
2019-05-12T04:45:35.601Z,2.58
2019-05-12T04:48:05.908Z,2.52
2019-05-12T04:50:36.235Z,2.70
2019-05-12T04:53:06.473Z,2.62
2019-05-12T04:55:36.375Z,2.58
2019-05-12T04:58:05.929Z,2.90
2019-05-12T05:00:35.778Z,2.90
2019-05-12T05:03:05.813Z,2.70
2019-05-12T05:05:35.925Z,2.80
2019-05-12T05:08:05.470Z,3.20
2019-05-12T05:10:35.020Z,2.47
2019-05-12T05:13:05.100Z,2.55
2019-05-12T05:15:35.306Z,2.27
2019-05-12T05:18:06.677Z,2.90
2019-05-12T05:20:37.948Z,2.60
2019-05-12T05:23:06.727Z,2.20
2019-05-12T05:25:35.705Z,2.20
2019-05-12T05:28:05.184Z,2.58
2019-05-12T05:30:34.430Z,2.50
2019-05-12T05:33:04.538Z,2.67
2019-05-12T05:35:39.527Z,2.75
2019-05-12T05:38:05.570Z,2.70
2019-05-12T05:40:35.623Z,2.70
2019-05-12T05:43:12.621Z,2.80
2019-05-12T05:45:35.671Z,2.02
2019-05-12T05:48:09.484Z,2.72
2019-05-12T05:50:35.099Z,2.85
2019-05-12T05:53:04.337Z,2.65
2019-05-12T05:55:34.275Z,2.42
2019-05-12T05:58:08.590Z,2.40
2019-05-12T06:00:37.133Z,2.27
2019-05-12T06:03:05.872Z,2.75
2019-05-12T06:05:38.441Z,3.12
2019-05-12T06:08:09.484Z,2.55
2019-05-12T06:10:40.529Z,2.47
2019-05-12T06:13:07.440Z,2.30
2019-05-12T06:15:40.622Z,2.62
2019-05-12T06:18:06.620Z,2.62
2019-05-12T06:20:37.976Z,2.30
2019-05-12T06:23:05.803Z,3.10
2019-05-12T06:25:46.413Z,2.70
2019-05-12T06:28:08.725Z,2.55
2019-05-12T06:30:44.107Z,2.60
2019-05-12T06:33:06.676Z,2.47
2019-05-12T06:35:42.091Z,3.00
2019-05-12T06:38:05.924Z,2.42
2019-05-12T06:40:41.274Z,3.20
2019-05-12T06:43:05.278Z,2.40
2019-05-12T06:45:41.890Z,2.62
2019-05-12T06:48:05.232Z,2.60
2019-05-12T06:50:39.122Z,2.62
2019-05-12T06:53:05.506Z,2.75
2019-05-12T06:55:39.102Z,3.37
2019-05-12T06:58:05.437Z,3.83
2019-05-12T07:00:35.361Z,2.80
2019-05-12T07:03:05.077Z,3.37
2019-05-12T07:05:38.272Z,3.00
2019-05-12T07:08:05.167Z,2.90
2019-05-12T07:10:41.620Z,2.72
2019-05-12T07:13:05.729Z,3.22
2019-05-12T07:15:39.678Z,2.85
2019-05-12T07:18:10.152Z,2.50
2019-05-12T07:20:39.464Z,3.05
2019-05-12T07:23:08.257Z,2.95
2019-05-12T07:25:37.107Z,2.75
2019-05-12T07:28:07.888Z,2.72
2019-05-12T07:30:36.214Z,2.15
2019-05-12T07:33:05.061Z,2.20
2019-05-12T07:35:34.415Z,2.67
2019-05-12T07:38:04.557Z,2.45
2019-05-12T07:40:36.728Z,2.47
2019-05-12T07:43:04.529Z,2.25
2019-05-12T07:45:34.056Z,2.58
2019-05-12T07:48:08.156Z,2.80
2019-05-12T07:50:34.484Z,2.40
2019-05-12T07:53:04.386Z,2.40
2019-05-12T07:55:34.029Z,2.40
2019-05-12T07:58:13.739Z,2.10
2019-05-12T08:00:34.979Z,2.22
2019-05-12T08:03:16.345Z,2.27
2019-05-12T08:05:34.168Z,2.12
2019-05-12T08:08:08.622Z,2.25
2019-05-12T08:10:34.276Z,2.77
2019-05-12T08:13:04.476Z,2.30
2019-05-12T08:15:33.994Z,2.25
2019-05-12T08:18:07.693Z,2.12
2019-05-12T08:20:34.364Z,2.20
2019-05-12T08:23:05.772Z,2.02
2019-05-12T08:25:35.252Z,2.02
2019-05-12T08:28:14.906Z,2.47
2019-05-12T08:30:45.817Z,2.22
2019-05-12T08:33:10.035Z,2.17
2019-05-12T08:35:38.751Z,2.42
2019-05-12T08:38:07.738Z,2.60
2019-05-12T08:40:39.829Z,2.20
2019-05-12T08:43:10.279Z,2.65
2019-05-12T08:45:37.895Z,1.98
2019-05-12T08:48:10.103Z,2.30
2019-05-12T08:50:37.186Z,2.30
2019-05-12T08:53:05.955Z,2.90
2019-05-12T08:55:35.922Z,2.77
2019-05-12T08:58:05.199Z,3.22
2019-05-12T09:00:46.517Z,4.37
2019-05-12T09:03:09.584Z,5.72
2019-05-12T09:05:38.787Z,7.45
2019-05-12T09:08:07.624Z,10.85
2019-05-12T09:10:36.398Z,10.15
2019-05-12T09:13:05.225Z,15.05
2019-05-12T09:15:34.565Z,11.43
2019-05-12T09:18:04.761Z,15.23
2019-05-12T09:20:34.179Z,10.55
2019-05-12T09:23:04.881Z,15.35
2019-05-12T09:25:34.058Z,16.80
2019-05-12T09:28:03.817Z,19.42
2019-05-12T09:30:33.608Z,21.40
2019-05-12T09:33:03.991Z,19.95
2019-05-12T09:35:38.886Z,19.87
2019-05-12T09:38:05.903Z,21.10
2019-05-12T09:40:35.514Z,20.62
2019-05-12T09:43:08.646Z,19.80
2019-05-12T09:45:40.098Z,17.12
2019-05-12T09:48:09.068Z,18.75
2019-05-12T09:50:36.752Z,16.42
2019-05-12T09:53:11.368Z,16.07
2019-05-12T09:55:35.960Z,15.83
2019-05-12T09:58:04.720Z,16.15
2019-05-12T10:00:35.880Z,16.02
2019-05-12T10:03:04.942Z,18.27
2019-05-12T10:05:41.221Z,18.20
2019-05-12T10:08:05.161Z,20.23
2019-05-12T10:10:38.791Z,20.48
2019-05-12T10:13:04.978Z,21.33
2019-05-12T10:15:33.767Z,23.52
2019-05-12T10:18:08.969Z,25.32
2019-05-12T10:20:37.354Z,25.82
2019-05-12T10:23:04.402Z,30.77
2019-05-12T10:25:33.897Z,31.12
2019-05-12T10:28:11.200Z,31.73
2019-05-12T10:30:34.201Z,34.88
2019-05-12T10:33:03.768Z,33.33
2019-05-12T10:35:35.206Z,34.27
2019-05-12T10:38:08.520Z,34.55
2019-05-12T10:40:33.943Z,32.35
2019-05-12T10:43:04.600Z,34.00
2019-05-12T10:45:32.696Z,33.20
2019-05-12T10:48:03.436Z,30.82
2019-05-12T10:50:33.961Z,31.50
2019-05-12T10:53:04.568Z,29.57
2019-05-12T10:55:33.472Z,27.40
2019-05-12T10:58:06.515Z,27.87
2019-05-12T11:00:34.049Z,26.90
2019-05-12T11:03:10.360Z,26.37
2019-05-12T11:05:34.183Z,24.63
2019-05-12T11:08:08.582Z,23.92
2019-05-12T11:10:33.599Z,23.35
2019-05-12T11:13:08.745Z,22.00
2019-05-12T11:15:34.287Z,22.27
2019-05-12T11:18:04.929Z,20.23
2019-05-12T11:20:34.304Z,18.92
2019-05-12T11:23:03.702Z,18.10
2019-05-12T11:25:33.926Z,18.37
2019-05-12T11:28:03.806Z,16.62
2019-05-12T11:30:34.678Z,16.25
2019-05-12T11:33:04.284Z,13.45
2019-05-12T11:35:34.354Z,12.82
2019-05-12T11:38:04.613Z,13.93
2019-05-12T11:40:34.819Z,12.30
2019-05-12T11:43:04.515Z,11.18
2019-05-12T11:45:33.838Z,12.03
2019-05-12T11:48:05.800Z,11.63
2019-05-12T11:50:33.622Z,10.65
2019-05-12T11:53:04.291Z,10.20
2019-05-12T11:55:34.978Z,9.55
2019-05-12T11:58:09.072Z,9.70
2019-05-12T12:00:35.553Z,8.38
2019-05-12T12:03:12.691Z,9.05
2019-05-12T12:05:38.118Z,8.43
2019-05-12T12:08:05.753Z,8.30
2019-05-12T12:10:38.343Z,7.95
2019-05-12T12:13:04.990Z,9.13
2019-05-12T12:15:34.453Z,9.10
2019-05-12T12:18:12.786Z,9.93
2019-05-12T12:20:34.052Z,13.25
2019-05-12T12:23:08.842Z,12.37
2019-05-12T12:25:34.242Z,10.72
2019-05-12T12:28:04.414Z,9.35
2019-05-12T12:30:34.135Z,8.58
2019-05-12T12:33:04.276Z,8.90
2019-05-12T12:35:34.395Z,7.75
2019-05-12T12:38:03.979Z,7.92
2019-05-12T12:40:32.893Z,7.50
2019-05-12T12:43:03.768Z,7.25
2019-05-12T12:45:40.044Z,6.87
2019-05-12T12:48:07.017Z,6.35
2019-05-12T12:50:35.784Z,7.30
2019-05-12T12:53:04.556Z,6.35
2019-05-12T12:55:41.313Z,6.30
2019-05-12T12:58:03.782Z,6.58
2019-05-12T13:00:46.362Z,6.20
2019-05-12T13:03:03.736Z,6.28
2019-05-12T13:05:34.481Z,6.10
2019-05-12T13:08:04.242Z,5.83
2019-05-12T13:10:33.729Z,6.28
2019-05-12T13:13:04.148Z,5.40
2019-05-12T13:15:34.015Z,5.90
2019-05-12T13:18:02.874Z,5.00
2019-05-12T13:20:34.185Z,5.70
2019-05-12T13:23:04.040Z,5.00
2019-05-12T13:25:33.633Z,4.97
2019-05-12T13:28:10.263Z,5.37
2019-05-12T13:30:45.572Z,4.70
2019-05-12T13:33:03.599Z,4.58
2019-05-12T13:35:34.186Z,4.78
2019-05-12T13:38:03.003Z,4.60
2019-05-12T13:40:36.043Z,4.72
2019-05-12T13:43:03.891Z,4.75
2019-05-12T13:45:33.626Z,4.42
2019-05-12T13:48:03.851Z,4.15
2019-05-12T13:50:32.704Z,4.03
2019-05-12T13:53:08.608Z,4.08
2019-05-12T13:55:34.179Z,4.03
2019-05-12T13:58:04.147Z,3.87
2019-05-12T14:00:33.641Z,3.70
2019-05-12T14:03:07.980Z,3.62
2019-05-12T14:05:32.836Z,4.17
2019-05-12T14:08:03.738Z,3.58
2019-05-12T14:10:35.394Z,3.27
2019-05-12T14:13:03.518Z,3.40
2019-05-12T14:15:34.074Z,3.50
2019-05-12T14:18:03.435Z,3.60
2019-05-12T14:20:34.476Z,3.20
2019-05-12T14:23:03.872Z,3.40
2019-05-12T14:25:34.977Z,3.20
2019-05-12T14:28:05.450Z,3.67
2019-05-12T14:30:33.746Z,3.30
2019-05-12T14:33:03.446Z,2.95
2019-05-12T14:35:40.428Z,3.35
2019-05-12T14:38:03.825Z,2.77
2019-05-12T14:40:34.787Z,2.90
2019-05-12T14:43:03.709Z,2.60
2019-05-12T14:45:33.251Z,3.25
2019-05-12T14:48:05.797Z,3.42
2019-05-12T14:50:33.625Z,3.50
2019-05-12T14:53:03.575Z,3.92
2019-05-12T14:55:33.755Z,3.25
2019-05-12T14:58:09.102Z,3.65
2019-05-12T15:00:34.807Z,3.08
2019-05-12T15:03:05.066Z,3.37
2019-05-12T15:05:33.980Z,3.10
2019-05-12T15:08:04.419Z,3.40
2019-05-12T15:10:33.904Z,3.25
2019-05-12T15:13:03.437Z,3.05
2019-05-12T15:15:33.608Z,3.05
2019-05-12T15:18:04.689Z,2.87
2019-05-12T15:20:33.130Z,3.52
2019-05-12T15:23:03.728Z,3.50
2019-05-12T15:25:35.291Z,3.70
2019-05-12T15:28:03.930Z,3.60
2019-05-12T15:30:33.694Z,3.20
2019-05-12T15:33:04.552Z,3.52
2019-05-12T15:35:34.374Z,3.50
2019-05-12T15:38:03.886Z,4.95
2019-05-12T15:40:32.756Z,4.80
2019-05-12T15:43:05.203Z,8.25
2019-05-12T15:45:34.140Z,14.87
2019-05-12T15:48:04.076Z,6.35
2019-05-12T15:50:34.191Z,9.13
2019-05-12T15:53:03.808Z,23.00
2019-05-12T15:55:34.507Z,18.35
2019-05-12T15:58:05.489Z,30.25
2019-05-12T16:00:34.415Z,27.15
2019-05-12T16:03:03.224Z,26.87
2019-05-12T16:05:33.879Z,32.17
2019-05-12T16:08:03.620Z,36.03
2019-05-12T16:10:32.584Z,32.95
2019-05-12T16:13:01.356Z,34.53
2019-05-12T16:15:30.128Z,36.00
2019-05-12T16:17:59.386Z,37.90
2019-05-12T16:20:29.324Z,40.83
2019-05-12T16:22:58.108Z,41.35
2019-05-12T16:25:30.658Z,40.92
2019-05-12T16:27:57.302Z,45.58
2019-05-12T16:30:27.191Z,45.35
2019-05-12T16:32:56.046Z,44.40
2019-05-12T16:35:26.427Z,44.88
2019-05-12T16:37:55.336Z,46.70
2019-05-12T16:40:24.114Z,47.80
2019-05-12T16:42:59.290Z,52.90
2019-05-12T16:45:23.546Z,54.90
2019-05-12T16:47:53.656Z,55.12
2019-05-12T16:50:27.650Z,52.67
2019-05-12T16:52:53.570Z,55.03
2019-05-12T16:55:24.164Z,52.35
2019-05-12T16:57:55.990Z,55.33
2019-05-12T17:00:24.431Z,54.50
2019-05-12T17:02:57.772Z,55.60
2019-05-12T17:05:24.132Z,55.98
2019-05-12T17:07:55.802Z,52.38
2019-05-12T17:10:24.423Z,52.80
2019-05-12T17:12:54.312Z,51.48
2019-05-12T17:15:23.627Z,52.67
2019-05-12T17:17:59.263Z,56.00
2019-05-12T17:20:22.908Z,49.98
2019-05-12T17:22:59.325Z,50.23
2019-05-12T17:25:23.863Z,50.15
2019-05-12T17:27:52.514Z,48.80
2019-05-12T17:30:23.756Z,48.23
2019-05-12T17:33:01.401Z,52.88
2019-05-12T17:35:27.071Z,46.70
2019-05-12T17:37:53.552Z,48.05
2019-05-12T17:40:24.329Z,48.95
2019-05-12T17:42:57.508Z,44.93
2019-05-12T17:45:23.602Z,46.33
2019-05-12T17:47:56.936Z,46.05
2019-05-12T17:50:24.133Z,46.60
2019-05-12T17:52:58.631Z,45.70
2019-05-12T17:55:23.392Z,54.25
2019-05-12T17:57:56.170Z,50.90
2019-05-12T18:00:25.587Z,47.43
2019-05-12T18:02:56.179Z,47.00
2019-05-12T18:05:24.884Z,46.15
2019-05-12T18:07:55.510Z,45.10
2019-05-12T18:10:24.090Z,44.50
2019-05-12T18:12:53.469Z,43.80
2019-05-12T18:15:31.899Z,43.20
2019-05-12T18:17:53.346Z,42.13
2019-05-12T18:20:23.781Z,40.63
2019-05-12T18:22:53.603Z,39.40
2019-05-12T18:25:30.301Z,41.33
2019-05-12T18:27:54.295Z,40.17
2019-05-12T18:30:23.837Z,40.90
2019-05-12T18:32:57.667Z,39.15
2019-05-12T18:35:23.103Z,38.95
2019-05-12T18:37:54.017Z,38.90
2019-05-12T18:40:24.158Z,36.40
2019-05-12T18:42:53.396Z,36.42
2019-05-12T18:45:23.947Z,35.83
2019-05-12T18:47:53.807Z,35.50
2019-05-12T18:50:29.266Z,35.23
2019-05-12T18:52:53.180Z,32.85
2019-05-12T18:55:23.538Z,34.48
2019-05-12T18:57:54.551Z,32.55
2019-05-12T19:00:24.412Z,33.65
2019-05-12T19:02:54.496Z,31.27
2019-05-12T19:05:30.262Z,39.63
2019-05-12T19:07:54.325Z,32.80
2019-05-12T19:10:24.087Z,32.55
2019-05-12T19:13:01.389Z,36.35
2019-05-12T19:15:23.451Z,34.00
2019-05-12T19:17:54.245Z,31.87
2019-05-12T19:20:23.994Z,33.00
2019-05-12T19:22:59.260Z,33.42
2019-05-12T19:25:23.899Z,32.42
2019-05-12T19:28:01.960Z,32.63
2019-05-12T19:30:25.458Z,32.83
2019-05-12T19:32:54.805Z,30.70
2019-05-12T19:35:23.764Z,32.05
2019-05-12T19:37:53.891Z,32.88
2019-05-12T19:40:22.789Z,30.88
2019-05-12T19:42:53.821Z,30.65
2019-05-12T19:45:24.259Z,31.00
2019-05-12T19:47:53.543Z,31.97
2019-05-12T19:50:22.412Z,30.70
2019-05-12T19:52:53.438Z,33.23
2019-05-12T19:55:24.024Z,31.62
2019-05-12T19:57:54.071Z,31.35
2019-05-12T20:00:22.579Z,30.90
2019-05-12T20:02:53.302Z,30.90
2019-05-12T20:05:23.795Z,29.10
2019-05-12T20:07:53.699Z,29.42
2019-05-12T20:10:24.340Z,30.10
2019-05-12T20:12:54.849Z,29.12
2019-05-12T20:15:24.160Z,29.35
2019-05-12T20:17:53.509Z,28.12
2019-05-12T20:20:26.588Z,28.90
2019-05-12T20:22:54.193Z,28.32
2019-05-12T20:25:23.623Z,28.27
2019-05-12T20:27:55.864Z,28.60
2019-05-12T20:30:24.073Z,32.28
2019-05-12T20:32:54.022Z,33.23
2019-05-12T20:35:22.876Z,34.63
2019-05-12T20:37:54.556Z,30.68
2019-05-12T20:40:23.902Z,33.63
2019-05-12T20:43:07.478Z,33.28
2019-05-12T20:45:25.803Z,34.13
2019-05-12T20:47:53.348Z,33.58
2019-05-12T20:50:25.872Z,31.02
2019-05-12T20:52:58.741Z,30.10
2019-05-12T20:55:23.490Z,31.23
2019-05-12T20:57:54.420Z,31.65
2019-05-12T21:00:24.380Z,29.45
2019-05-12T21:02:53.902Z,30.23
2019-05-12T21:05:23.727Z,30.15
2019-05-12T21:07:55.788Z,28.80
2019-05-12T21:10:26.459Z,29.87
2019-05-12T21:12:54.386Z,30.50
2019-05-12T21:15:29.365Z,29.02
2019-05-12T21:18:02.578Z,28.17
2019-05-12T21:20:24.403Z,27.62
2019-05-12T21:22:53.887Z,28.62
2019-05-12T21:25:23.299Z,27.75
2019-05-12T21:27:53.716Z,27.42
2019-05-12T21:30:24.723Z,27.60
2019-05-12T21:33:01.089Z,27.52
2019-05-12T21:35:25.932Z,26.35
2019-05-12T21:37:53.915Z,27.13
2019-05-12T21:40:30.166Z,27.52
2019-05-12T21:42:53.729Z,25.55
2019-05-12T21:45:26.580Z,25.00
2019-05-12T21:47:54.486Z,27.40
2019-05-12T21:50:32.174Z,25.25
2019-05-12T21:52:59.517Z,25.85
2019-05-12T21:55:26.608Z,25.77
2019-05-12T21:57:54.936Z,25.97
2019-05-12T22:00:39.132Z,26.15
2019-05-12T22:03:12.367Z,25.80
2019-05-12T22:05:50.564Z,24.82
2019-05-12T22:08:20.644Z,25.77
2019-05-12T22:10:43.788Z,25.25
2019-05-12T22:13:17.030Z,25.70
2019-05-12T22:15:42.951Z,24.37
2019-05-12T22:18:11.720Z,25.10
2019-05-12T22:20:40.489Z,25.08
2019-05-12T22:23:11.811Z,25.52
2019-05-12T22:25:39.675Z,24.23
2019-05-12T22:28:10.427Z,23.67
2019-05-12T22:30:38.880Z,24.85
2019-05-12T22:33:10.596Z,23.77
2019-05-12T22:35:38.082Z,23.18
2019-05-12T22:38:15.180Z,24.37
2019-05-12T22:40:37.271Z,23.40
2019-05-12T22:43:07.193Z,21.55
2019-05-12T22:45:44.256Z,22.93
2019-05-12T22:48:06.456Z,21.25
2019-05-12T22:50:35.470Z,21.00
2019-05-12T22:53:04.777Z,20.62
2019-05-12T22:55:35.944Z,20.48
2019-05-12T22:58:04.340Z,21.45
2019-05-12T23:00:34.133Z,21.25
2019-05-12T23:03:07.110Z,21.37
2019-05-12T23:05:33.651Z,20.50
2019-05-12T23:08:06.224Z,21.50
2019-05-12T23:10:32.848Z,21.87
2019-05-12T23:13:04.310Z,21.15
2019-05-12T23:15:33.463Z,21.48
2019-05-12T23:18:04.219Z,20.60
2019-05-12T23:20:35.440Z,20.88
2019-05-12T23:23:04.075Z,20.95
2019-05-12T23:25:33.843Z,21.73
2019-05-12T23:28:08.415Z,20.48
2019-05-12T23:30:33.084Z,20.55
2019-05-12T23:33:03.806Z,20.95
2019-05-12T23:35:34.910Z,20.30
2019-05-12T23:38:04.486Z,19.90
2019-05-12T23:40:34.470Z,20.08
2019-05-12T23:43:03.995Z,19.73
2019-05-12T23:45:34.023Z,19.77
2019-05-12T23:48:03.910Z,20.45
2019-05-12T23:50:32.905Z,19.87
2019-05-12T23:53:03.856Z,20.00
2019-05-12T23:55:34.931Z,18.92
2019-05-12T23:58:04.199Z,19.05
